sensor_id;sensor_type;location;lat;lon;timestamp;temperature;humidity
66422;DHT22;53228;51.380;0.098;2023-12-14T08:31:42;0.50;99.90
66422;DHT22;53228;51.380;0.098;2023-12-14T08:44:02;3.80;99.90
66422;DHT22;53228;51.380;0.098;2023-12-14T08:46:41;4.00;99.90
66422;DHT22;53228;51.380;0.098;2023-12-14T08:49:10;4.00;99.90
66422;DHT22;53228;51.380;0.098;2023-12-14T08:51:39;4.00;99.90
66422;DHT22;53228;51.380;0.098;2023-12-14T08:54:07;4.10;99.90
66422;DHT22;53228;51.380;0.098;2023-12-14T08:56:35;4.10;99.90
66422;DHT22;53228;51.380;0.098;2023-12-14T08:59:02;4.10;99.90
66422;DHT22;53228;51.380;0.098;2023-12-14T09:01:31;4.10;99.90
66422;DHT22;53228;51.380;0.098;2023-12-14T09:03:59;4.20;99.90
66422;DHT22;53228;51.380;0.098;2023-12-14T09:06:27;4.20;99.90
66422;DHT22;53228;51.380;0.098;2023-12-14T09:08:55;4.20;99.90
66422;DHT22;53228;51.380;0.098;2023-12-14T09:11:23;4.20;99.90
66422;DHT22;53228;51.380;0.098;2023-12-14T09:13:50;4.30;99.90
66422;DHT22;53228;51.380;0.098;2023-12-14T09:16:18;4.30;99.90
66422;DHT22;53228;51.380;0.098;2023-12-14T09:18:46;4.30;99.90
66422;DHT22;53228;51.380;0.098;2023-12-14T09:21:14;4.40;99.90
66422;DHT22;53228;51.380;0.098;2023-12-14T09:23:42;4.40;99.90
66422;DHT22;53228;51.380;0.098;2023-12-14T09:26:10;4.40;99.90
66422;DHT22;53228;51.380;0.098;2023-12-14T09:28:38;4.40;99.90
66422;DHT22;53228;51.380;0.098;2023-12-14T09:31:06;4.50;99.90
66422;DHT22;53228;51.380;0.098;2023-12-14T09:33:36;4.50;99.90
66422;DHT22;53228;51.380;0.098;2023-12-14T09:36:04;4.60;99.90
66422;DHT22;53228;51.380;0.098;2023-12-14T09:38:32;4.60;99.90
66422;DHT22;53228;51.380;0.098;2023-12-14T09:40:59;4.60;99.90
66422;DHT22;53228;51.380;0.098;2023-12-14T09:43:27;4.60;99.90
66422;DHT22;53228;51.380;0.098;2023-12-14T09:45:58;4.60;99.90
66422;DHT22;53228;51.380;0.098;2023-12-14T09:48:28;4.70;99.90
66422;DHT22;53228;51.380;0.098;2023-12-14T09:50:57;4.70;99.90
66422;DHT22;53228;51.380;0.098;2023-12-14T09:53:25;4.70;99.90
66422;DHT22;53228;51.380;0.098;2023-12-14T09:55:52;4.80;99.90
66422;DHT22;53228;51.380;0.098;2023-12-14T09:58:21;4.80;99.90
66422;DHT22;53228;51.380;0.098;2023-12-14T10:00:48;4.80;99.90
66422;DHT22;53228;51.380;0.098;2023-12-14T10:03:25;4.80;99.90
66422;DHT22;53228;51.380;0.098;2023-12-14T10:05:57;4.90;99.90
66422;DHT22;53228;51.380;0.098;2023-12-14T10:08:25;5.00;99.90
66422;DHT22;53228;51.380;0.098;2023-12-14T10:10:54;5.00;99.90
66422;DHT22;53228;51.380;0.098;2023-12-14T10:13:43;5.10;99.90
66422;DHT22;53228;51.380;0.098;2023-12-14T10:16:11;5.10;99.90
66422;DHT22;53228;51.380;0.098;2023-12-14T10:18:38;5.20;99.90
66422;DHT22;53228;51.380;0.098;2023-12-14T10:21:07;5.20;99.90
66422;DHT22;53228;51.380;0.098;2023-12-14T10:23:35;5.20;99.90
66422;DHT22;53228;51.380;0.098;2023-12-14T10:26:04;5.30;99.90
66422;DHT22;53228;51.380;0.098;2023-12-14T10:28:32;5.40;99.90
66422;DHT22;53228;51.380;0.098;2023-12-14T10:31:00;5.80;99.90
66422;DHT22;53228;51.380;0.098;2023-12-14T10:33:28;6.40;99.90
66422;DHT22;53228;51.380;0.098;2023-12-14T10:35:56;6.80;99.90
66422;DHT22;53228;51.380;0.098;2023-12-14T10:38:24;7.10;99.90
66422;DHT22;53228;51.380;0.098;2023-12-14T10:40:53;7.50;99.90
66422;DHT22;53228;51.380;0.098;2023-12-14T10:43:23;7.90;99.90
66422;DHT22;53228;51.380;0.098;2023-12-14T10:46:11;8.30;99.90
66422;DHT22;53228;51.380;0.098;2023-12-14T10:48:40;8.60;99.90
66422;DHT22;53228;51.380;0.098;2023-12-14T10:51:12;8.90;99.90
66422;DHT22;53228;51.380;0.098;2023-12-14T10:53:43;9.20;99.90
66422;DHT22;53228;51.380;0.098;2023-12-14T10:56:17;9.50;99.90
66422;DHT22;53228;51.380;0.098;2023-12-14T10:58:46;9.40;99.90
66422;DHT22;53228;51.380;0.098;2023-12-14T11:01:17;9.10;99.90
66422;DHT22;53228;51.380;0.098;2023-12-14T11:08:54;8.60;99.90
66422;DHT22;53228;51.380;0.098;2023-12-14T11:11:27;8.40;99.90
66422;DHT22;53228;51.380;0.098;2023-12-14T11:13:55;8.30;99.90
66422;DHT22;53228;51.380;0.098;2023-12-14T11:16:26;8.10;99.90
66422;DHT22;53228;51.380;0.098;2023-12-14T11:24:35;7.50;99.90
66422;DHT22;53228;51.380;0.098;2023-12-14T11:27:06;7.70;99.90
66422;DHT22;53228;51.380;0.098;2023-12-14T11:29:38;8.10;99.90
66422;DHT22;53228;51.380;0.098;2023-12-14T11:32:09;8.30;99.90
66422;DHT22;53228;51.380;0.098;2023-12-14T11:34:39;10.10;99.90
66422;DHT22;53228;51.380;0.098;2023-12-14T11:37:07;10.40;99.90
66422;DHT22;53228;51.380;0.098;2023-12-14T11:39:35;10.20;99.90
66422;DHT22;53228;51.380;0.098;2023-12-14T11:42:05;10.10;99.90
66422;DHT22;53228;51.380;0.098;2023-12-14T11:44:38;9.40;99.90
66422;DHT22;53228;51.380;0.098;2023-12-14T11:47:08;9.20;99.90
66422;DHT22;53228;51.380;0.098;2023-12-14T11:52:04;8.60;99.90
66422;DHT22;53228;51.380;0.098;2023-12-14T11:54:32;8.60;99.90
66422;DHT22;53228;51.380;0.098;2023-12-14T11:57:01;8.50;99.90
66422;DHT22;53228;51.380;0.098;2023-12-14T11:59:31;8.30;99.90
66422;DHT22;53228;51.380;0.098;2023-12-14T12:07:02;8.10;99.90
66422;DHT22;53228;51.380;0.098;2023-12-14T12:09:43;7.90;99.90
66422;DHT22;53228;51.380;0.098;2023-12-14T12:12:12;7.80;99.90
66422;DHT22;53228;51.380;0.098;2023-12-14T12:14:40;8.70;99.90
66422;DHT22;53228;51.380;0.098;2023-12-14T12:17:09;8.70;99.90
66422;DHT22;53228;51.380;0.098;2023-12-14T12:19:37;8.20;99.90
66422;DHT22;53228;51.380;0.098;2023-12-14T12:22:05;8.00;99.90
66422;DHT22;53228;51.380;0.098;2023-12-14T12:24:33;8.10;99.90
66422;DHT22;53228;51.380;0.098;2023-12-14T12:27:01;8.10;99.90
66422;DHT22;53228;51.380;0.098;2023-12-14T12:29:30;8.10;99.90
66422;DHT22;53228;51.380;0.098;2023-12-14T12:31:58;8.40;99.90
66422;DHT22;53228;51.380;0.098;2023-12-14T12:36:55;7.80;99.90
66422;DHT22;53228;51.380;0.098;2023-12-14T12:39:25;8.30;99.90
66422;DHT22;53228;51.380;0.098;2023-12-14T12:41:53;8.10;99.90
66422;DHT22;53228;51.380;0.098;2023-12-14T12:44:20;7.90;99.90
66422;DHT22;53228;51.380;0.098;2023-12-14T12:49:31;8.20;99.90
66422;DHT22;53228;51.380;0.098;2023-12-14T12:54:27;8.40;99.90
66422;DHT22;53228;51.380;0.098;2023-12-14T12:56:54;8.10;99.90
66422;DHT22;53228;51.380;0.098;2023-12-14T12:59:22;8.40;99.90
66422;DHT22;53228;51.380;0.098;2023-12-14T13:01:50;8.60;99.90
66422;DHT22;53228;51.380;0.098;2023-12-14T13:04:19;8.50;99.90
66422;DHT22;53228;51.380;0.098;2023-12-14T13:06:48;8.40;99.90
66422;DHT22;53228;51.380;0.098;2023-12-14T13:09:16;8.50;99.90
66422;DHT22;53228;51.380;0.098;2023-12-14T13:11:44;8.70;99.90
66422;DHT22;53228;51.380;0.098;2023-12-14T13:14:12;8.30;99.90
66422;DHT22;53228;51.380;0.098;2023-12-14T13:16:42;8.40;99.90
66422;DHT22;53228;51.380;0.098;2023-12-14T13:19:10;8.70;99.90
66422;DHT22;53228;51.380;0.098;2023-12-14T13:21:38;8.90;99.90
66422;DHT22;53228;51.380;0.098;2023-12-14T13:24:06;8.90;99.90
66422;DHT22;53228;51.380;0.098;2023-12-14T13:26:33;8.70;99.90
66422;DHT22;53228;51.380;0.098;2023-12-14T13:29:01;8.50;99.90
66422;DHT22;53228;51.380;0.098;2023-12-14T13:31:30;9.30;99.90
66422;DHT22;53228;51.380;0.098;2023-12-14T13:33:57;9.00;99.90
66422;DHT22;53228;51.380;0.098;2023-12-14T13:38:53;8.80;99.90
66422;DHT22;53228;51.380;0.098;2023-12-14T13:41:21;8.50;99.90
66422;DHT22;53228;51.380;0.098;2023-12-14T13:46:18;9.20;99.90
66422;DHT22;53228;51.380;0.098;2023-12-14T13:48:50;8.60;99.90
66422;DHT22;53228;51.380;0.098;2023-12-14T13:51:20;9.10;99.90
66422;DHT22;53228;51.380;0.098;2023-12-14T13:53:48;9.00;99.90
66422;DHT22;53228;51.380;0.098;2023-12-14T13:56:16;9.00;99.90
66422;DHT22;53228;51.380;0.098;2023-12-14T13:58:44;8.70;99.90
66422;DHT22;53228;51.380;0.098;2023-12-14T14:01:12;9.00;99.90
66422;DHT22;53228;51.380;0.098;2023-12-14T14:03:41;8.80;99.90
66422;DHT22;53228;51.380;0.098;2023-12-14T14:06:09;9.10;99.90
66422;DHT22;53228;51.380;0.098;2023-12-14T14:08:37;8.60;99.90
66422;DHT22;53228;51.380;0.098;2023-12-14T14:11:05;8.40;99.90
66422;DHT22;53228;51.380;0.098;2023-12-14T14:13:37;8.40;99.90
66422;DHT22;53228;51.380;0.098;2023-12-14T14:16:06;9.30;99.90
66422;DHT22;53228;51.380;0.098;2023-12-14T14:18:34;8.70;99.90
66422;DHT22;53228;51.380;0.098;2023-12-14T14:21:02;8.40;99.90
66422;DHT22;53228;51.380;0.098;2023-12-14T14:23:35;8.60;99.90
66422;DHT22;53228;51.380;0.098;2023-12-14T14:26:03;8.40;99.90
66422;DHT22;53228;51.380;0.098;2023-12-14T14:28:31;8.40;99.90
66422;DHT22;53228;51.380;0.098;2023-12-14T14:30:58;8.60;99.90
66422;DHT22;53228;51.380;0.098;2023-12-14T14:33:26;8.60;99.90
66422;DHT22;53228;51.380;0.098;2023-12-14T14:35:54;8.50;99.90
66422;DHT22;53228;51.380;0.098;2023-12-14T14:38:22;8.70;99.90
66422;DHT22;53228;51.380;0.098;2023-12-14T14:40:50;8.60;99.90
66422;DHT22;53228;51.380;0.098;2023-12-14T14:43:17;8.60;99.90
66422;DHT22;53228;51.380;0.098;2023-12-14T14:45:45;8.50;99.90
66422;DHT22;53228;51.380;0.098;2023-12-14T14:48:13;8.60;99.90
66422;DHT22;53228;51.380;0.098;2023-12-14T14:50:41;8.90;99.90
66422;DHT22;53228;51.380;0.098;2023-12-14T14:53:08;8.30;99.90
66422;DHT22;53228;51.380;0.098;2023-12-14T14:55:36;8.60;99.90
66422;DHT22;53228;51.380;0.098;2023-12-14T14:58:03;8.50;99.90
66422;DHT22;53228;51.380;0.098;2023-12-14T15:00:31;8.60;99.90
66422;DHT22;53228;51.380;0.098;2023-12-14T15:03:00;8.00;99.90
66422;DHT22;53228;51.380;0.098;2023-12-14T15:05:27;8.20;99.90
66422;DHT22;53228;51.380;0.098;2023-12-14T15:07:55;8.80;99.90
66422;DHT22;53228;51.380;0.098;2023-12-14T15:10:26;8.50;99.90
66422;DHT22;53228;51.380;0.098;2023-12-14T15:15:22;8.70;99.90
66422;DHT22;53228;51.380;0.098;2023-12-14T15:17:50;8.30;99.90
66422;DHT22;53228;51.380;0.098;2023-12-14T15:20:17;9.00;99.90
66422;DHT22;53228;51.380;0.098;2023-12-14T15:22:45;8.50;99.90
66422;DHT22;53228;51.380;0.098;2023-12-14T15:25:13;8.40;99.90
66422;DHT22;53228;51.380;0.098;2023-12-14T15:27:44;8.80;99.90
66422;DHT22;53228;51.380;0.098;2023-12-14T15:30:12;8.20;99.90
66422;DHT22;53228;51.380;0.098;2023-12-14T15:35:08;8.40;99.90
66422;DHT22;53228;51.380;0.098;2023-12-14T15:37:36;9.10;99.90
66422;DHT22;53228;51.380;0.098;2023-12-14T15:40:04;8.10;99.90
66422;DHT22;53228;51.380;0.098;2023-12-14T15:42:32;8.60;99.90
66422;DHT22;53228;51.380;0.098;2023-12-14T15:45:00;8.40;99.90
66422;DHT22;53228;51.380;0.098;2023-12-14T15:47:28;8.30;99.90
66422;DHT22;53228;51.380;0.098;2023-12-14T15:49:56;7.70;99.90
66422;DHT22;53228;51.380;0.098;2023-12-14T15:52:24;8.10;99.90
66422;DHT22;53228;51.380;0.098;2023-12-14T15:59:47;8.10;99.90
66422;DHT22;53228;51.380;0.098;2023-12-14T16:02:15;8.10;99.90
66422;DHT22;53228;51.380;0.098;2023-12-14T16:04:43;7.60;99.90
66422;DHT22;53228;51.380;0.098;2023-12-14T16:07:12;7.60;99.90
66422;DHT22;53228;51.380;0.098;2023-12-14T16:09:42;8.20;99.90
66422;DHT22;53228;51.380;0.098;2023-12-14T16:12:10;8.30;99.90
66422;DHT22;53228;51.380;0.098;2023-12-14T16:14:37;7.60;99.90
66422;DHT22;53228;51.380;0.098;2023-12-14T16:19:33;8.30;99.90
66422;DHT22;53228;51.380;0.098;2023-12-14T16:22:01;8.10;99.90
66422;DHT22;53228;51.380;0.098;2023-12-14T16:24:28;8.20;99.90
66422;DHT22;53228;51.380;0.098;2023-12-14T16:26:56;8.20;99.90
66422;DHT22;53228;51.380;0.098;2023-12-14T16:29:26;8.50;99.90
66422;DHT22;53228;51.380;0.098;2023-12-14T16:31:54;7.60;99.90
66422;DHT22;53228;51.380;0.098;2023-12-14T16:34:22;8.10;99.90
66422;DHT22;53228;51.380;0.098;2023-12-14T16:36:50;8.10;99.90
66422;DHT22;53228;51.380;0.098;2023-12-14T16:39:18;7.90;99.90
66422;DHT22;53228;51.380;0.098;2023-12-14T16:41:45;8.10;99.90
66422;DHT22;53228;51.380;0.098;2023-12-14T16:44:13;8.10;99.90
66422;DHT22;53228;51.380;0.098;2023-12-14T16:49:09;8.10;99.90
66422;DHT22;53228;51.380;0.098;2023-12-14T16:51:37;7.80;99.90
66422;DHT22;53228;51.380;0.098;2023-12-14T16:54:04;8.30;99.90
66422;DHT22;53228;51.380;0.098;2023-12-14T16:56:32;8.00;99.90
66422;DHT22;53228;51.380;0.098;2023-12-14T16:59:00;7.90;99.90
66422;DHT22;53228;51.380;0.098;2023-12-14T17:01:28;8.00;99.90
66422;DHT22;53228;51.380;0.098;2023-12-14T17:03:56;8.70;99.90
66422;DHT22;53228;51.380;0.098;2023-12-14T17:06:24;8.00;99.90
66422;DHT22;53228;51.380;0.098;2023-12-14T17:08:52;7.40;99.90
66422;DHT22;53228;51.380;0.098;2023-12-14T17:11:20;7.80;99.90
66422;DHT22;53228;51.380;0.098;2023-12-14T17:13:48;8.00;99.90
66422;DHT22;53228;51.380;0.098;2023-12-14T17:16:19;7.90;99.90
66422;DHT22;53228;51.380;0.098;2023-12-14T17:18:47;7.90;99.90
66422;DHT22;53228;51.380;0.098;2023-12-14T17:21:22;7.20;99.90
66422;DHT22;53228;51.380;0.098;2023-12-14T17:23:52;7.70;99.90
66422;DHT22;53228;51.380;0.098;2023-12-14T17:26:21;7.40;99.90
66422;DHT22;53228;51.380;0.098;2023-12-14T17:28:54;7.60;99.90
66422;DHT22;53228;51.380;0.098;2023-12-14T17:31:24;7.60;99.90
66422;DHT22;53228;51.380;0.098;2023-12-14T17:33:52;8.80;99.90
66422;DHT22;53228;51.380;0.098;2023-12-14T17:36:20;7.40;99.90
66422;DHT22;53228;51.380;0.098;2023-12-14T17:38:48;7.40;99.90
66422;DHT22;53228;51.380;0.098;2023-12-14T17:41:17;7.40;99.90
66422;DHT22;53228;51.380;0.098;2023-12-14T17:43:45;7.40;99.90
66422;DHT22;53228;51.380;0.098;2023-12-14T17:46:15;7.40;99.90
66422;DHT22;53228;51.380;0.098;2023-12-14T17:48:45;7.40;99.90
66422;DHT22;53228;51.380;0.098;2023-12-14T17:51:12;7.40;99.90
66422;DHT22;53228;51.380;0.098;2023-12-14T17:53:40;6.80;99.90
66422;DHT22;53228;51.380;0.098;2023-12-14T17:56:10;7.30;99.90
66422;DHT22;53228;51.380;0.098;2023-12-14T17:58:38;7.20;99.90
66422;DHT22;53228;51.380;0.098;2023-12-14T18:01:08;6.50;99.90
66422;DHT22;53228;51.380;0.098;2023-12-14T18:03:36;7.10;99.90
66422;DHT22;53228;51.380;0.098;2023-12-14T18:06:04;7.10;99.90
66422;DHT22;53228;51.380;0.098;2023-12-14T18:08:32;7.00;99.90
66422;DHT22;53228;51.380;0.098;2023-12-14T18:10:59;6.80;99.90
66422;DHT22;53228;51.380;0.098;2023-12-14T18:13:27;7.00;99.90
66422;DHT22;53228;51.380;0.098;2023-12-14T18:15:55;7.00;99.90
66422;DHT22;53228;51.380;0.098;2023-12-14T18:18:22;7.50;99.90
66422;DHT22;53228;51.380;0.098;2023-12-14T18:20:50;7.00;99.90
66422;DHT22;53228;51.380;0.098;2023-12-14T18:23:18;7.00;99.90
66422;DHT22;53228;51.380;0.098;2023-12-14T18:25:46;7.00;99.90
66422;DHT22;53228;51.380;0.098;2023-12-14T18:28:14;7.10;99.90
66422;DHT22;53228;51.380;0.098;2023-12-14T18:30:42;6.70;99.90
66422;DHT22;53228;51.380;0.098;2023-12-14T18:33:10;6.20;99.90
66422;DHT22;53228;51.380;0.098;2023-12-14T18:35:39;7.20;99.90
66422;DHT22;53228;51.380;0.098;2023-12-14T18:38:07;7.20;99.90
66422;DHT22;53228;51.380;0.098;2023-12-14T18:40:34;7.30;99.90
66422;DHT22;53228;51.380;0.098;2023-12-14T18:43:02;7.20;99.90
66422;DHT22;53228;51.380;0.098;2023-12-14T18:45:30;7.30;99.90
66422;DHT22;53228;51.380;0.098;2023-12-14T18:47:57;7.30;99.90
66422;DHT22;53228;51.380;0.098;2023-12-14T18:50:25;7.30;99.90
66422;DHT22;53228;51.380;0.098;2023-12-14T18:52:53;7.30;99.90
66422;DHT22;53228;51.380;0.098;2023-12-14T18:55:25;7.20;99.90
66422;DHT22;53228;51.380;0.098;2023-12-14T18:57:52;7.20;99.90
66422;DHT22;53228;51.380;0.098;2023-12-14T19:00:21;7.20;99.90
66422;DHT22;53228;51.380;0.098;2023-12-14T19:02:49;6.80;99.90
66422;DHT22;53228;51.380;0.098;2023-12-14T19:05:17;7.20;99.90
66422;DHT22;53228;51.380;0.098;2023-12-14T19:07:48;7.90;99.90
66422;DHT22;53228;51.380;0.098;2023-12-14T19:10:16;7.20;99.90
66422;DHT22;53228;51.380;0.098;2023-12-14T19:12:47;7.30;99.90
66422;DHT22;53228;51.380;0.098;2023-12-14T19:15:15;7.30;99.90
66422;DHT22;53228;51.380;0.098;2023-12-14T19:17:42;7.30;99.90
66422;DHT22;53228;51.380;0.098;2023-12-14T19:20:12;7.20;99.90
66422;DHT22;53228;51.380;0.098;2023-12-14T19:22:40;7.20;99.90
66422;DHT22;53228;51.380;0.098;2023-12-14T19:25:10;7.10;99.90
66422;DHT22;53228;51.380;0.098;2023-12-14T19:27:39;7.90;99.90
66422;DHT22;53228;51.380;0.098;2023-12-14T19:30:08;7.00;99.90
66422;DHT22;53228;51.380;0.098;2023-12-14T19:32:37;7.00;99.90
66422;DHT22;53228;51.380;0.098;2023-12-14T19:35:05;7.60;99.90
66422;DHT22;53228;51.380;0.098;2023-12-14T19:37:33;6.90;99.90
66422;DHT22;53228;51.380;0.098;2023-12-14T19:40:01;6.90;99.90
66422;DHT22;53228;51.380;0.098;2023-12-14T19:42:30;6.90;99.90
66422;DHT22;53228;51.380;0.098;2023-12-14T19:44:59;6.80;99.90
66422;DHT22;53228;51.380;0.098;2023-12-14T19:47:27;6.90;99.90
66422;DHT22;53228;51.380;0.098;2023-12-14T19:49:55;6.70;99.90
66422;DHT22;53228;51.380;0.098;2023-12-14T19:52:28;6.70;99.90
66422;DHT22;53228;51.380;0.098;2023-12-14T19:54:55;6.70;99.90
66422;DHT22;53228;51.380;0.098;2023-12-14T19:57:25;5.60;99.90
66422;DHT22;53228;51.380;0.098;2023-12-14T19:59:53;6.70;99.90
66422;DHT22;53228;51.380;0.098;2023-12-14T20:02:20;6.80;99.90
66422;DHT22;53228;51.380;0.098;2023-12-14T20:04:48;6.80;99.90
66422;DHT22;53228;51.380;0.098;2023-12-14T20:07:16;6.80;99.90
66422;DHT22;53228;51.380;0.098;2023-12-14T20:09:45;6.90;99.90
66422;DHT22;53228;51.380;0.098;2023-12-14T20:12:27;6.90;99.90
66422;DHT22;53228;51.380;0.098;2023-12-14T20:14:56;6.00;99.90
66422;DHT22;53228;51.380;0.098;2023-12-14T20:17:23;6.90;99.90
66422;DHT22;53228;51.380;0.098;2023-12-14T20:19:51;6.90;99.90
66422;DHT22;53228;51.380;0.098;2023-12-14T20:22:19;6.90;99.90
66422;DHT22;53228;51.380;0.098;2023-12-14T20:24:47;6.90;99.90
66422;DHT22;53228;51.380;0.098;2023-12-14T20:27:15;6.90;99.90
66422;DHT22;53228;51.380;0.098;2023-12-14T20:29:44;6.90;99.90
66422;DHT22;53228;51.380;0.098;2023-12-14T20:32:11;6.80;99.90
66422;DHT22;53228;51.380;0.098;2023-12-14T20:34:39;6.80;99.90
66422;DHT22;53228;51.380;0.098;2023-12-14T20:37:07;6.80;99.90
66422;DHT22;53228;51.380;0.098;2023-12-14T20:39:34;6.80;99.90
66422;DHT22;53228;51.380;0.098;2023-12-14T20:42:02;6.70;99.90
66422;DHT22;53228;51.380;0.098;2023-12-14T20:44:30;6.70;99.90
66422;DHT22;53228;51.380;0.098;2023-12-14T20:46:58;6.70;99.90
66422;DHT22;53228;51.380;0.098;2023-12-14T20:49:25;7.40;99.90
66422;DHT22;53228;51.380;0.098;2023-12-14T20:51:53;6.60;99.90
66422;DHT22;53228;51.380;0.098;2023-12-14T20:54:21;5.90;99.90
66422;DHT22;53228;51.380;0.098;2023-12-14T20:56:53;6.20;99.90
66422;DHT22;53228;51.380;0.098;2023-12-14T20:59:29;5.60;99.90
66422;DHT22;53228;51.380;0.098;2023-12-14T21:01:56;6.60;99.90
66422;DHT22;53228;51.380;0.098;2023-12-14T21:04:24;6.70;99.90
66422;DHT22;53228;51.380;0.098;2023-12-14T21:06:52;6.70;99.90
66422;DHT22;53228;51.380;0.098;2023-12-14T21:09:20;6.70;99.90
66422;DHT22;53228;51.380;0.098;2023-12-14T21:11:47;6.70;99.90
66422;DHT22;53228;51.380;0.098;2023-12-14T21:14:15;6.70;99.90
66422;DHT22;53228;51.380;0.098;2023-12-14T21:16:43;6.70;99.90
66422;DHT22;53228;51.380;0.098;2023-12-14T21:19:18;6.60;99.90
66422;DHT22;53228;51.380;0.098;2023-12-14T21:21:46;6.60;99.90
66422;DHT22;53228;51.380;0.098;2023-12-14T21:24:14;6.60;99.90
66422;DHT22;53228;51.380;0.098;2023-12-14T21:26:45;7.40;99.90
66422;DHT22;53228;51.380;0.098;2023-12-14T21:29:39;6.60;99.90
66422;DHT22;53228;51.380;0.098;2023-12-14T21:32:07;5.90;99.90
66422;DHT22;53228;51.380;0.098;2023-12-14T21:34:35;6.60;99.90
66422;DHT22;53228;51.380;0.098;2023-12-14T21:37:03;6.60;99.90
66422;DHT22;53228;51.380;0.098;2023-12-14T21:39:30;6.60;99.90
66422;DHT22;53228;51.380;0.098;2023-12-14T21:41:58;6.70;99.90
66422;DHT22;53228;51.380;0.098;2023-12-14T21:44:25;6.70;99.90
66422;DHT22;53228;51.380;0.098;2023-12-14T21:46:53;6.60;99.90
66422;DHT22;53228;51.380;0.098;2023-12-14T21:49:21;6.60;99.90
66422;DHT22;53228;51.380;0.098;2023-12-14T21:51:49;5.70;99.90
66422;DHT22;53228;51.380;0.098;2023-12-14T21:54:17;6.60;99.90
66422;DHT22;53228;51.380;0.098;2023-12-14T21:56:45;6.60;99.90
66422;DHT22;53228;51.380;0.098;2023-12-14T21:59:12;6.50;99.90
66422;DHT22;53228;51.380;0.098;2023-12-14T22:01:41;6.50;99.90
66422;DHT22;53228;51.380;0.098;2023-12-14T22:04:09;6.50;99.90
66422;DHT22;53228;51.380;0.098;2023-12-14T22:06:36;6.60;99.90
66422;DHT22;53228;51.380;0.098;2023-12-14T22:09:04;6.60;99.90
66422;DHT22;53228;51.380;0.098;2023-12-14T22:11:32;6.60;99.90
66422;DHT22;53228;51.380;0.098;2023-12-14T22:13:59;6.60;99.90
66422;DHT22;53228;51.380;0.098;2023-12-14T22:16:27;6.60;99.90
66422;DHT22;53228;51.380;0.098;2023-12-14T22:18:55;6.60;99.90
66422;DHT22;53228;51.380;0.098;2023-12-14T22:21:22;6.70;99.90
66422;DHT22;53228;51.380;0.098;2023-12-14T22:23:50;6.70;99.90
66422;DHT22;53228;51.380;0.098;2023-12-14T22:26:18;6.70;99.90
66422;DHT22;53228;51.380;0.098;2023-12-14T22:28:45;6.00;99.90
66422;DHT22;53228;51.380;0.098;2023-12-14T22:31:13;6.70;99.90
66422;DHT22;53228;51.380;0.098;2023-12-14T22:33:41;6.70;99.90
66422;DHT22;53228;51.380;0.098;2023-12-14T22:36:09;6.70;99.90
66422;DHT22;53228;51.380;0.098;2023-12-14T22:38:37;6.80;99.90
66422;DHT22;53228;51.380;0.098;2023-12-14T22:41:04;6.80;99.90
66422;DHT22;53228;51.380;0.098;2023-12-14T22:43:32;6.80;99.90
66422;DHT22;53228;51.380;0.098;2023-12-14T22:46:00;6.80;99.90
66422;DHT22;53228;51.380;0.098;2023-12-14T22:48:28;6.80;99.90
66422;DHT22;53228;51.380;0.098;2023-12-14T22:50:56;6.90;99.90
66422;DHT22;53228;51.380;0.098;2023-12-14T22:53:23;6.90;99.90
66422;DHT22;53228;51.380;0.098;2023-12-14T22:55:55;6.90;99.90
66422;DHT22;53228;51.380;0.098;2023-12-14T22:58:23;6.90;99.90
66422;DHT22;53228;51.380;0.098;2023-12-14T23:00:51;7.00;99.90
66422;DHT22;53228;51.380;0.098;2023-12-14T23:03:18;7.00;99.90
66422;DHT22;53228;51.380;0.098;2023-12-14T23:05:46;7.00;99.90
66422;DHT22;53228;51.380;0.098;2023-12-14T23:08:13;6.30;99.90
66422;DHT22;53228;51.380;0.098;2023-12-14T23:10:41;7.00;99.90
66422;DHT22;53228;51.380;0.098;2023-12-14T23:13:09;7.00;99.90
66422;DHT22;53228;51.380;0.098;2023-12-14T23:15:36;7.00;99.90
66422;DHT22;53228;51.380;0.098;2023-12-14T23:18:04;7.00;99.90
66422;DHT22;53228;51.380;0.098;2023-12-14T23:20:32;7.00;99.90
66422;DHT22;53228;51.380;0.098;2023-12-14T23:23:00;7.00;99.90
66422;DHT22;53228;51.380;0.098;2023-12-14T23:25:28;7.00;99.90
66422;DHT22;53228;51.380;0.098;2023-12-14T23:27:56;7.00;99.90
66422;DHT22;53228;51.380;0.098;2023-12-14T23:30:26;7.00;99.90
66422;DHT22;53228;51.380;0.098;2023-12-14T23:32:54;7.00;99.90
66422;DHT22;53228;51.380;0.098;2023-12-14T23:35:22;7.00;99.90
66422;DHT22;53228;51.380;0.098;2023-12-14T23:37:50;7.00;99.90
66422;DHT22;53228;51.380;0.098;2023-12-14T23:40:17;7.00;99.90
66422;DHT22;53228;51.380;0.098;2023-12-14T23:42:45;7.00;99.90
66422;DHT22;53228;51.380;0.098;2023-12-14T23:45:13;7.00;99.90
66422;DHT22;53228;51.380;0.098;2023-12-14T23:47:41;7.00;99.90
66422;DHT22;53228;51.380;0.098;2023-12-14T23:50:09;7.00;99.90
66422;DHT22;53228;51.380;0.098;2023-12-14T23:52:37;7.00;99.90
66422;DHT22;53228;51.380;0.098;2023-12-14T23:55:05;7.00;99.90
66422;DHT22;53228;51.380;0.098;2023-12-14T23:57:33;7.00;99.90
